createdAt,value
2022-08-01T00:00:27.688Z,34.02
2022-08-01T00:01:29.724Z,33.97
2022-08-01T00:02:32.310Z,34.21
2022-08-01T00:03:34.138Z,34.07
2022-08-01T00:04:35.966Z,34.07
2022-08-01T00:05:38.007Z,33.99
2022-08-01T00:06:39.977Z,34.07
2022-08-01T00:07:42.114Z,33.93
2022-08-01T00:08:43.907Z,34.00
2022-08-01T00:09:45.909Z,34.22
2022-08-01T00:10:48.020Z,34.31
2022-08-01T00:11:49.863Z,34.16
2022-08-01T00:13:02.000Z,34.01
2022-08-01T00:14:03.988Z,34.05
2022-08-01T00:15:07.893Z,34.49
2022-08-01T00:16:10.790Z,34.28
2022-08-01T00:17:12.870Z,34.25
2022-08-01T00:18:15.983Z,34.05
2022-08-01T00:19:17.907Z,34.08
2022-08-01T00:20:19.906Z,34.25
2022-08-01T00:21:22.232Z,34.40
2022-08-01T00:22:24.314Z,34.23
2022-08-01T00:23:26.162Z,34.24
2022-08-01T00:24:27.992Z,34.13
2022-08-01T00:25:33.841Z,34.48
2022-08-01T00:26:36.454Z,34.18
2022-08-01T00:27:38.291Z,34.20
2022-08-01T00:28:40.816Z,34.15
2022-08-01T00:30:11.109Z,34.29
2022-08-01T00:31:05.007Z,34.48
2022-08-01T00:32:07.504Z,34.26
2022-08-01T00:33:09.785Z,34.16
2022-08-01T00:34:11.631Z,34.44
2022-08-01T00:35:14.446Z,34.05
2022-08-01T00:36:16.492Z,34.38
2022-08-01T00:37:18.676Z,34.27
2022-08-01T00:38:20.584Z,34.34
2022-08-01T00:39:22.752Z,34.64
2022-08-01T00:40:24.697Z,34.63
2022-08-01T00:41:26.614Z,34.60
2022-08-01T00:42:28.480Z,34.41
2022-08-01T00:43:30.540Z,34.34
2022-08-01T00:44:32.379Z,34.42
2022-08-01T00:45:34.335Z,34.64
2022-08-01T00:46:36.146Z,34.43
2022-08-01T00:47:39.790Z,34.69
2022-08-01T00:48:42.345Z,34.20
2022-08-01T00:49:44.512Z,34.51
2022-08-01T00:50:46.815Z,34.57
2022-08-01T00:51:49.445Z,34.74
2022-08-01T00:52:51.790Z,34.57
2022-08-01T00:53:54.748Z,34.67
2022-08-01T00:54:57.121Z,34.64
2022-08-01T00:55:58.967Z,34.66
2022-08-01T00:57:01.193Z,34.53
2022-08-01T00:58:05.716Z,34.71
2022-08-01T00:59:10.298Z,34.46
2022-08-01T01:00:13.344Z,34.28
2022-08-01T01:01:15.764Z,34.68
2022-08-01T01:02:19.191Z,34.41
2022-08-01T01:03:26.392Z,34.99
2022-08-01T01:04:35.460Z,34.73
2022-08-01T01:05:56.443Z,35.00
2022-08-01T01:07:23.843Z,34.43
2022-08-01T01:08:31.212Z,34.59
2022-08-01T01:10:11.154Z,34.64
2022-08-01T01:11:57.978Z,34.34
2022-08-01T01:13:12.255Z,34.18
2022-08-01T01:14:48.151Z,34.24
2022-08-01T01:15:59.338Z,34.62
2022-08-01T01:17:03.912Z,34.46
2022-08-01T01:18:12.679Z,34.69
2022-08-01T01:19:21.490Z,34.95
2022-08-01T01:20:30.767Z,34.61
2022-08-01T01:21:38.670Z,34.76
2022-08-01T01:23:08.221Z,34.74
2022-08-01T01:24:23.486Z,34.55
2022-08-01T01:25:42.100Z,34.63
2022-08-01T01:27:13.179Z,34.58
2022-08-01T01:28:45.615Z,34.50
2022-08-01T01:29:59.675Z,34.31
2022-08-01T01:31:07.055Z,34.59
2022-08-01T01:32:28.641Z,34.69
2022-08-01T01:33:34.498Z,34.31
2022-08-01T01:34:40.405Z,34.58
2022-08-01T01:35:49.988Z,34.79
2022-08-01T01:36:55.083Z,34.54
2022-08-01T01:38:08.926Z,34.62
2022-08-01T01:39:11.491Z,34.63
2022-08-01T01:40:15.071Z,34.72
2022-08-01T01:41:18.684Z,34.67
2022-08-01T01:42:22.163Z,34.63
2022-08-01T01:43:28.935Z,34.87
2022-08-01T01:44:38.194Z,34.71
2022-08-01T01:45:41.406Z,34.77
2022-08-01T01:46:44.001Z,34.76
2022-08-01T01:47:47.132Z,34.85
2022-08-01T01:48:49.787Z,34.84
2022-08-01T01:49:53.710Z,34.92
2022-08-01T01:50:57.777Z,34.75
2022-08-01T01:52:02.492Z,34.45
2022-08-01T01:53:06.886Z,34.71
2022-08-01T01:54:17.537Z,34.85
2022-08-01T01:55:22.618Z,35.21
2022-08-01T01:56:25.890Z,35.02
2022-08-01T01:57:32.019Z,34.93
2022-08-01T01:58:36.363Z,34.64
2022-08-01T01:59:40.669Z,35.10
2022-08-01T02:00:45.560Z,34.66
2022-08-01T02:02:08.234Z,34.94
2022-08-01T02:03:13.177Z,34.75
2022-08-01T02:04:15.575Z,34.87
2022-08-01T02:05:17.781Z,35.07
2022-08-01T02:06:20.123Z,34.63
2022-08-01T02:07:27.096Z,35.02
2022-08-01T02:08:32.174Z,35.07
2022-08-01T02:09:36.666Z,35.01
2022-08-01T02:10:40.311Z,35.08
2022-08-01T02:12:07.978Z,35.04
2022-08-01T02:13:07.726Z,34.86
2022-08-01T02:14:11.301Z,34.81
2022-08-01T02:15:14.942Z,35.13
2022-08-01T02:16:18.217Z,34.88
2022-08-01T02:17:21.975Z,35.24
2022-08-01T02:18:23.964Z,34.97
2022-08-01T02:19:26.241Z,35.03
2022-08-01T02:20:31.584Z,35.13
2022-08-01T02:21:40.124Z,35.25
2022-08-01T02:22:47.653Z,34.89
2022-08-01T02:23:51.234Z,34.88
2022-08-01T02:25:07.284Z,35.04
2022-08-01T02:26:14.879Z,34.92
2022-08-01T02:27:35.156Z,35.14
2022-08-01T02:28:44.775Z,34.93
2022-08-01T02:29:55.882Z,35.24
2022-08-01T02:31:05.228Z,35.04
2022-08-01T02:32:11.864Z,35.12
2022-08-01T02:33:19.713Z,35.36
2022-08-01T02:34:23.421Z,35.03
2022-08-01T02:35:29.228Z,34.93
2022-08-01T02:36:34.544Z,35.03
2022-08-01T02:37:44.287Z,35.14
2022-08-01T02:38:48.460Z,35.29
2022-08-01T02:39:53.715Z,35.06
2022-08-01T02:41:01.134Z,35.05
2022-08-01T02:42:07.697Z,35.09
2022-08-01T02:43:11.957Z,35.06
2022-08-01T02:44:22.453Z,34.98
2022-08-01T02:45:27.651Z,35.05
2022-08-01T02:46:36.384Z,34.87
2022-08-01T02:47:41.365Z,35.07
2022-08-01T02:48:44.737Z,35.14
2022-08-01T02:49:53.471Z,34.81
2022-08-01T02:50:59.619Z,35.18
2022-08-01T02:52:06.187Z,35.17
2022-08-01T02:53:11.323Z,34.81
2022-08-01T02:54:13.337Z,34.86
2022-08-01T02:55:16.145Z,35.17
2022-08-01T02:56:20.270Z,34.89
2022-08-01T02:57:23.503Z,35.04
2022-08-01T02:58:32.065Z,35.24
2022-08-01T02:59:38.263Z,35.27
2022-08-01T03:00:46.920Z,34.79
2022-08-01T03:01:53.262Z,35.48
2022-08-01T03:02:59.984Z,35.22
2022-08-01T03:04:02.498Z,34.73
2022-08-01T03:05:05.200Z,35.04
2022-08-01T03:06:08.707Z,35.04
2022-08-01T03:07:12.987Z,35.11
2022-08-01T03:08:17.774Z,35.19
2022-08-01T03:09:20.738Z,35.24
2022-08-01T03:10:24.812Z,35.59
2022-08-01T03:11:29.627Z,35.34
2022-08-01T03:12:35.059Z,35.32
2022-08-01T03:13:38.718Z,35.28
2022-08-01T03:14:43.342Z,35.38
2022-08-01T03:15:46.747Z,35.64
2022-08-01T03:16:50.279Z,35.40
2022-08-01T03:17:54.033Z,35.24
2022-08-01T03:18:58.331Z,35.49
2022-08-01T03:20:03.732Z,35.32
2022-08-01T03:21:08.033Z,35.31
2022-08-01T03:22:12.961Z,35.16
2022-08-01T03:23:16.657Z,35.03
2022-08-01T03:24:20.586Z,35.03
2022-08-01T03:25:24.741Z,35.13
2022-08-01T03:26:29.779Z,35.16
2022-08-01T03:27:32.558Z,35.44
2022-08-01T03:28:34.649Z,34.88
2022-08-01T03:29:37.492Z,35.20
2022-08-01T03:30:41.672Z,34.99
2022-08-01T03:31:46.032Z,35.41
2022-08-01T03:32:48.051Z,35.02
2022-08-01T03:33:50.049Z,35.00
2022-08-01T03:34:51.912Z,35.14
2022-08-01T03:35:55.878Z,35.35
2022-08-01T03:37:08.379Z,35.32
2022-08-01T03:38:16.201Z,35.24
2022-08-01T03:39:22.846Z,35.00
2022-08-01T03:40:29.616Z,35.39
2022-08-01T03:41:39.042Z,34.94
2022-08-01T03:42:47.092Z,35.18
2022-08-01T03:44:06.430Z,35.12
2022-08-01T03:45:13.319Z,35.27
2022-08-01T03:46:23.208Z,34.96
2022-08-01T03:47:32.660Z,35.52
2022-08-01T03:48:40.509Z,35.49
2022-08-01T03:49:46.114Z,35.27
2022-08-01T03:50:51.394Z,35.14
2022-08-01T03:51:53.838Z,35.08
2022-08-01T03:53:00.164Z,35.25
2022-08-01T03:54:03.055Z,35.13
2022-08-01T03:55:10.775Z,35.24
2022-08-01T03:56:17.575Z,34.96
2022-08-01T03:57:35.939Z,35.21
2022-08-01T03:58:40.728Z,35.19
2022-08-01T03:59:44.062Z,34.86
2022-08-01T04:00:46.881Z,35.09
2022-08-01T04:01:49.189Z,34.99
2022-08-01T04:02:53.488Z,35.19
2022-08-01T04:03:56.054Z,35.20
2022-08-01T04:04:57.926Z,35.10
2022-08-01T04:05:59.862Z,35.38
2022-08-01T04:07:07.634Z,35.21
2022-08-01T04:08:09.603Z,35.20
2022-08-01T04:09:13.734Z,35.15
2022-08-01T04:10:15.912Z,35.09
2022-08-01T04:11:17.770Z,35.13
2022-08-01T04:12:20.025Z,35.51
2022-08-01T04:13:21.820Z,35.25
2022-08-01T04:14:23.763Z,35.16
2022-08-01T04:15:25.643Z,34.96
2022-08-01T04:16:27.672Z,34.76
2022-08-01T04:17:29.424Z,34.91
2022-08-01T04:18:31.266Z,35.34
2022-08-01T04:19:33.041Z,35.09
2022-08-01T04:20:34.791Z,35.37
2022-08-01T04:21:38.762Z,35.28
2022-08-01T04:22:41.680Z,35.28
2022-08-01T04:23:45.798Z,34.85
2022-08-01T04:24:54.528Z,35.27
2022-08-01T04:26:00.357Z,35.17
2022-08-01T04:27:06.035Z,35.09
2022-08-01T04:28:12.366Z,35.22
2022-08-01T04:29:18.574Z,34.97
2022-08-01T04:30:25.716Z,35.08
2022-08-01T04:31:28.947Z,35.16
2022-08-01T04:32:34.630Z,35.30
2022-08-01T04:33:40.302Z,34.91
2022-08-01T04:34:47.183Z,35.13
2022-08-01T04:36:02.162Z,35.13
2022-08-01T04:37:09.175Z,34.96
2022-08-01T04:38:14.276Z,35.25
2022-08-01T04:39:17.851Z,35.09
2022-08-01T04:40:23.007Z,35.17
2022-08-01T04:41:25.930Z,35.14
2022-08-01T04:42:33.442Z,35.19
2022-08-01T04:43:35.655Z,35.29
2022-08-01T04:44:38.331Z,35.23
2022-08-01T04:45:41.218Z,35.34
2022-08-01T04:46:44.767Z,35.24
2022-08-01T04:47:48.871Z,35.19
2022-08-01T04:48:51.785Z,35.49
2022-08-01T04:49:54.975Z,35.72
2022-08-01T04:50:56.736Z,35.57
2022-08-01T04:51:58.747Z,35.40
2022-08-01T04:53:00.575Z,35.46
2022-08-01T04:54:02.741Z,35.33
2022-08-01T04:55:07.242Z,35.36
2022-08-01T04:56:09.111Z,35.35
2022-08-01T04:57:10.918Z,35.76
2022-08-01T04:58:17.649Z,35.56
2022-08-01T04:59:39.428Z,35.46
2022-08-01T05:00:41.363Z,35.25
2022-08-01T05:01:43.364Z,35.28
2022-08-01T05:02:45.333Z,35.62
2022-08-01T05:03:47.169Z,35.44
2022-08-01T05:04:49.258Z,35.55
2022-08-01T05:05:51.090Z,35.17
2022-08-01T05:06:52.943Z,35.44
2022-08-01T05:07:54.723Z,35.69
2022-08-01T05:08:56.964Z,35.58
2022-08-01T05:09:59.212Z,35.30
2022-08-01T05:11:02.298Z,35.65
2022-08-01T05:12:07.227Z,35.43
2022-08-01T05:13:09.591Z,35.25
2022-08-01T05:14:11.822Z,35.26
2022-08-01T05:15:15.620Z,34.99
2022-08-01T05:16:18.055Z,35.21
2022-08-01T05:17:19.883Z,35.30
2022-08-01T05:18:26.091Z,35.13
2022-08-01T05:19:34.983Z,34.86
2022-08-01T05:20:38.253Z,34.80
2022-08-01T05:21:40.276Z,34.91
2022-08-01T05:22:42.176Z,35.26
2022-08-01T05:23:43.907Z,35.39
2022-08-01T05:24:47.160Z,34.98
2022-08-01T05:25:57.999Z,34.44
2022-08-01T05:27:01.392Z,34.92
2022-08-01T05:28:05.263Z,34.66
2022-08-01T05:29:08.031Z,34.31
2022-08-01T05:30:11.023Z,34.77
2022-08-01T05:31:12.815Z,34.70
2022-08-01T05:32:14.706Z,34.52
2022-08-01T05:33:16.766Z,34.38
2022-08-01T05:34:19.520Z,34.47
2022-08-01T05:35:21.290Z,34.24
2022-08-01T05:36:23.047Z,34.20
2022-08-01T05:37:25.236Z,33.97
2022-08-01T05:38:27.064Z,34.33
2022-08-01T05:39:28.891Z,34.14
2022-08-01T05:40:30.794Z,33.92
2022-08-01T05:41:32.619Z,34.25
2022-08-01T05:42:34.619Z,34.15
2022-08-01T05:43:36.415Z,34.01
2022-08-01T05:44:38.188Z,34.20
2022-08-01T05:45:40.019Z,33.88
2022-08-01T05:46:42.121Z,33.74
2022-08-01T05:47:44.025Z,33.95
2022-08-01T05:48:46.008Z,33.78
2022-08-01T05:49:47.813Z,33.87
2022-08-01T05:50:50.940Z,33.68
2022-08-01T05:51:53.724Z,33.82
2022-08-01T05:52:55.775Z,33.89
2022-08-01T05:53:58.675Z,34.01
2022-08-01T05:55:00.451Z,33.68
2022-08-01T05:56:02.977Z,33.20
2022-08-01T05:57:05.101Z,33.92
2022-08-01T05:58:06.910Z,33.66
2022-08-01T05:59:08.779Z,33.66
2022-08-01T06:00:11.130Z,33.42
2022-08-01T06:01:15.911Z,33.12
2022-08-01T06:02:17.916Z,33.88
2022-08-01T06:03:19.983Z,33.24
2022-08-01T06:04:21.873Z,33.19
2022-08-01T06:05:23.887Z,33.67
2022-08-01T06:06:25.739Z,33.42
2022-08-01T06:07:27.668Z,33.18
2022-08-01T06:08:29.547Z,33.35
2022-08-01T06:09:31.975Z,33.76
2022-08-01T06:10:33.829Z,33.41
2022-08-01T06:11:35.774Z,33.32
2022-08-01T06:12:38.946Z,33.45
2022-08-01T06:13:47.036Z,33.31
2022-08-01T06:14:50.823Z,33.50
2022-08-01T06:15:52.704Z,33.43
2022-08-01T06:16:54.548Z,33.59
2022-08-01T06:17:56.667Z,33.33
2022-08-01T06:18:58.475Z,33.53
2022-08-01T06:20:00.818Z,33.32
2022-08-01T06:21:03.376Z,33.47
2022-08-01T06:22:05.386Z,33.31
2022-08-01T06:23:28.524Z,33.08
2022-08-01T06:24:29.283Z,33.25
2022-08-01T06:25:31.375Z,33.60
2022-08-01T06:26:33.261Z,33.31
2022-08-01T06:27:36.246Z,33.57
2022-08-01T06:28:39.657Z,33.32
2022-08-01T06:29:41.423Z,33.67
2022-08-01T06:30:53.231Z,33.43
2022-08-01T06:31:54.988Z,33.64
2022-08-01T06:32:59.609Z,33.14
2022-08-01T06:34:01.459Z,33.32
2022-08-01T06:35:03.611Z,33.28
2022-08-01T06:36:05.549Z,33.44
2022-08-01T06:37:07.449Z,33.61
2022-08-01T06:38:10.076Z,33.84
2022-08-01T06:39:12.080Z,33.50
2022-08-01T06:40:17.197Z,33.60
2022-08-01T06:41:19.660Z,33.38
2022-08-01T06:42:21.414Z,33.53
2022-08-01T06:43:23.184Z,33.74
2022-08-01T06:44:24.976Z,33.60
2022-08-01T06:45:27.986Z,33.54
2022-08-01T06:46:32.353Z,33.48
2022-08-01T06:47:34.545Z,33.71
2022-08-01T06:48:40.328Z,33.42
2022-08-01T06:49:42.165Z,33.56
2022-08-01T06:50:44.082Z,33.55
2022-08-01T06:51:46.191Z,33.46
2022-08-01T06:52:48.111Z,33.30
2022-08-01T06:53:49.910Z,33.44
2022-08-01T06:54:51.746Z,33.88
2022-08-01T06:55:53.536Z,33.63
2022-08-01T06:56:55.352Z,33.65
2022-08-01T06:57:57.298Z,33.41
2022-08-01T06:59:02.108Z,33.72
2022-08-01T07:00:12.490Z,33.59
2022-08-01T07:01:14.406Z,33.11
2022-08-01T07:02:16.268Z,33.08
2022-08-01T07:03:18.288Z,33.30
2022-08-01T07:04:20.333Z,33.17
2022-08-01T07:05:22.798Z,33.63
2022-08-01T07:06:25.914Z,33.49
2022-08-01T07:07:28.551Z,33.49
2022-08-01T07:08:30.445Z,33.21
2022-08-01T07:09:32.315Z,33.15
2022-08-01T07:10:34.155Z,33.56
2022-08-01T07:11:36.063Z,32.93
2022-08-01T07:12:39.247Z,33.29
2022-08-01T07:13:45.566Z,33.36
2022-08-01T07:14:47.821Z,33.29
2022-08-01T07:15:49.787Z,33.43
2022-08-01T07:16:52.064Z,33.45
2022-08-01T07:17:53.997Z,33.46
2022-08-01T07:18:56.025Z,33.38
2022-08-01T07:19:57.923Z,33.31
2022-08-01T07:20:59.978Z,33.19
2022-08-01T07:22:01.799Z,33.48
2022-08-01T07:23:06.407Z,33.52
2022-08-01T07:24:14.495Z,33.51
2022-08-01T07:25:17.103Z,33.14
2022-08-01T07:26:18.954Z,33.32
2022-08-01T07:27:24.019Z,33.29
2022-08-01T07:28:28.184Z,33.10
2022-08-01T07:29:29.941Z,33.19
2022-08-01T07:30:32.016Z,33.48
2022-08-01T07:31:33.881Z,33.23
2022-08-01T07:32:36.027Z,33.38
2022-08-01T07:33:48.858Z,33.55
2022-08-01T07:34:51.896Z,33.64
2022-08-01T07:35:53.739Z,33.27
2022-08-01T07:36:55.737Z,33.49
2022-08-01T07:37:57.635Z,33.08
2022-08-01T07:38:59.544Z,33.17
2022-08-01T07:40:05.643Z,33.45
2022-08-01T07:41:07.532Z,33.30
2022-08-01T07:42:09.724Z,33.30
2022-08-01T07:43:11.751Z,33.21
2022-08-01T07:44:13.615Z,33.46
2022-08-01T07:45:16.391Z,33.38
2022-08-01T07:46:18.330Z,33.23
2022-08-01T07:47:26.133Z,33.22
2022-08-01T07:48:28.503Z,33.56
2022-08-01T07:49:32.114Z,33.60
2022-08-01T07:50:35.688Z,33.33
2022-08-01T07:51:37.714Z,33.45
2022-08-01T07:52:39.711Z,33.30
2022-08-01T07:53:41.577Z,33.23
2022-08-01T07:54:43.404Z,33.20
2022-08-01T07:55:45.512Z,33.33
2022-08-01T07:56:49.139Z,33.13
2022-08-01T07:57:51.037Z,32.88
2022-08-01T07:58:52.846Z,33.17
2022-08-01T07:59:55.025Z,32.99
2022-08-01T08:00:56.795Z,33.55
2022-08-01T08:01:59.132Z,33.41
2022-08-01T08:03:01.011Z,33.50
2022-08-01T08:04:02.934Z,33.48
2022-08-01T08:05:05.902Z,33.19
2022-08-01T08:06:08.122Z,33.66
2022-08-01T08:07:10.528Z,33.70
2022-08-01T08:08:12.615Z,33.71
2022-08-01T08:09:15.732Z,33.15
2022-08-01T08:10:17.532Z,33.63
2022-08-01T08:11:19.260Z,33.23
2022-08-01T08:12:28.892Z,33.52
2022-08-01T08:13:31.745Z,33.22
2022-08-01T08:14:33.747Z,33.66
2022-08-01T08:15:35.727Z,33.70
2022-08-01T08:16:37.570Z,33.75
2022-08-01T08:17:39.750Z,33.55
2022-08-01T08:18:41.625Z,33.79
2022-08-01T08:19:43.514Z,33.99
2022-08-01T08:20:45.354Z,33.22
2022-08-01T08:21:47.130Z,33.66
2022-08-01T08:22:49.006Z,33.68
2022-08-01T08:24:09.026Z,32.94
2022-08-01T08:25:12.617Z,33.36
2022-08-01T08:26:14.357Z,33.87
2022-08-01T08:27:16.588Z,33.58
2022-08-01T08:28:18.517Z,33.75
2022-08-01T08:29:21.470Z,33.45
2022-08-01T08:30:24.826Z,33.62
2022-08-01T08:31:51.212Z,33.60
2022-08-01T08:32:49.085Z,33.75
2022-08-01T08:33:50.847Z,33.51
2022-08-01T08:34:52.643Z,33.43
2022-08-01T08:35:55.782Z,33.49
2022-08-01T08:36:59.296Z,33.45
2022-08-01T08:38:01.100Z,33.42
2022-08-01T08:39:04.620Z,33.35
2022-08-01T08:40:07.638Z,33.21
2022-08-01T08:41:10.889Z,34.07
2022-08-01T08:42:12.905Z,33.37
2022-08-01T08:43:17.094Z,33.30
2022-08-01T08:44:21.135Z,33.54
2022-08-01T08:45:56.266Z,33.50
2022-08-01T08:46:48.218Z,33.44
2022-08-01T08:47:51.053Z,33.18
2022-08-01T08:48:53.471Z,33.82
2022-08-01T08:49:56.981Z,33.47
2022-08-01T08:51:00.743Z,32.98
2022-08-01T08:52:03.987Z,33.21
2022-08-01T08:53:06.775Z,33.48
2022-08-01T08:54:11.608Z,33.10
2022-08-01T08:55:15.871Z,33.43
2022-08-01T08:56:18.256Z,33.18
2022-08-01T08:57:21.919Z,33.35
2022-08-01T08:58:30.590Z,33.27
2022-08-01T08:59:33.777Z,33.10
2022-08-01T09:00:36.975Z,33.38
2022-08-01T09:01:39.116Z,33.46
2022-08-01T09:02:46.125Z,33.70
2022-08-01T09:03:48.902Z,33.07
2022-08-01T09:04:51.821Z,33.19
2022-08-01T09:05:54.107Z,33.22
2022-08-01T09:06:56.252Z,33.13
2022-08-01T09:07:58.061Z,33.23
2022-08-01T09:09:00.518Z,33.35
2022-08-01T09:10:02.484Z,33.18
2022-08-01T09:11:05.463Z,33.26
2022-08-01T09:12:07.396Z,33.71
2022-08-01T09:13:14.505Z,33.45
2022-08-01T09:14:25.214Z,33.33
2022-08-01T09:15:46.762Z,33.25
2022-08-01T09:16:49.219Z,33.41
2022-08-01T09:17:51.169Z,32.86
2022-08-01T09:18:53.903Z,33.27
2022-08-01T09:19:57.784Z,33.15
2022-08-01T09:21:06.828Z,32.98
2022-08-01T09:22:11.373Z,33.37
2022-08-01T09:23:33.088Z,33.10
2022-08-01T09:24:36.095Z,32.74
2022-08-01T09:25:59.257Z,32.94
2022-08-01T09:27:03.454Z,32.98
2022-08-01T09:28:07.398Z,33.00
2022-08-01T09:29:37.085Z,32.83
2022-08-01T09:30:40.753Z,32.94
2022-08-01T09:31:47.132Z,33.17
2022-08-01T09:32:57.845Z,32.64
2022-08-01T09:34:09.199Z,33.06
2022-08-01T09:35:36.495Z,33.15
2022-08-01T09:36:59.550Z,32.86
2022-08-01T09:38:16.009Z,32.99
2022-08-01T09:39:19.683Z,32.80
2022-08-01T09:40:21.476Z,33.27
2022-08-01T09:41:37.881Z,33.15
2022-08-01T09:42:42.530Z,33.44
2022-08-01T09:43:51.432Z,33.10
2022-08-01T09:44:54.893Z,33.12
2022-08-01T09:45:58.524Z,32.99
2022-08-01T09:47:00.524Z,32.69
2022-08-01T09:48:10.789Z,32.96
2022-08-01T09:49:12.805Z,32.86
2022-08-01T09:50:15.494Z,32.98
2022-08-01T09:52:00.189Z,33.13
2022-08-01T09:52:57.207Z,32.90
2022-08-01T09:54:00.303Z,32.82
2022-08-01T09:55:06.186Z,32.76
2022-08-01T09:56:14.378Z,32.80
2022-08-01T09:57:18.853Z,32.94
2022-08-01T09:58:21.655Z,33.21
2022-08-01T09:59:57.174Z,32.77
2022-08-01T10:01:01.400Z,33.11
2022-08-01T10:02:03.190Z,33.01
2022-08-01T10:03:26.310Z,32.97
2022-08-01T10:04:28.757Z,32.78
2022-08-01T10:05:37.447Z,33.00
2022-08-01T10:06:41.676Z,32.70
2022-08-01T10:08:07.547Z,33.10
2022-08-01T10:09:13.486Z,33.08
2022-08-01T10:10:17.021Z,32.78
2022-08-01T10:11:19.094Z,32.88
2022-08-01T10:12:25.212Z,33.07
2022-08-01T10:13:36.405Z,33.04
2022-08-01T10:14:39.778Z,33.15
2022-08-01T10:15:43.469Z,33.17
2022-08-01T10:16:52.927Z,32.88
2022-08-01T10:18:02.052Z,32.69
2022-08-01T10:19:14.628Z,33.30
2022-08-01T10:20:28.935Z,32.64
2022-08-01T10:21:53.165Z,32.95
2022-08-01T10:22:58.095Z,32.99
2022-08-01T10:24:03.244Z,32.82
2022-08-01T10:25:06.469Z,32.93
2022-08-01T10:26:09.545Z,33.15
2022-08-01T10:27:12.930Z,33.00
2022-08-01T10:28:23.764Z,32.94
2022-08-01T10:29:59.037Z,33.08
2022-08-01T10:30:50.423Z,33.11
2022-08-01T10:31:52.879Z,33.19
2022-08-01T10:32:55.407Z,32.98
2022-08-01T10:33:59.136Z,33.21
2022-08-01T10:35:06.744Z,33.12
2022-08-01T10:36:09.883Z,32.80
2022-08-01T10:37:11.855Z,33.20
2022-08-01T10:38:16.043Z,33.04
2022-08-01T10:39:20.255Z,33.12
2022-08-01T10:40:31.256Z,33.22
2022-08-01T10:41:35.818Z,33.00
2022-08-01T10:42:45.159Z,33.02
2022-08-01T10:43:47.164Z,33.22
2022-08-01T10:44:49.794Z,33.07
2022-08-01T10:45:53.321Z,33.21
2022-08-01T10:47:10.942Z,32.96
2022-08-01T10:48:44.012Z,32.94
2022-08-01T10:49:54.973Z,33.00
2022-08-01T10:51:00.712Z,33.06
2022-08-01T10:52:03.565Z,33.02
2022-08-01T10:53:16.018Z,32.83
2022-08-01T10:54:18.734Z,32.56
2022-08-01T10:55:20.580Z,32.98
2022-08-01T10:56:27.051Z,33.18
2022-08-01T10:57:48.886Z,32.86
2022-08-01T10:59:06.663Z,33.14
2022-08-01T11:00:21.647Z,33.16
2022-08-01T11:01:23.820Z,33.06
2022-08-01T11:02:34.576Z,32.87
2022-08-01T11:03:55.984Z,33.33
2022-08-01T11:05:23.970Z,32.85
2022-08-01T11:06:36.738Z,32.72
2022-08-01T11:07:47.422Z,33.05
2022-08-01T11:08:53.416Z,33.08
2022-08-01T11:10:14.832Z,33.09
2022-08-01T11:11:17.259Z,32.70
2022-08-01T11:12:23.160Z,32.97
2022-08-01T11:13:59.946Z,33.04
2022-08-01T11:15:05.635Z,32.78
2022-08-01T11:16:27.531Z,32.91
2022-08-01T11:17:54.707Z,32.84
2022-08-01T11:18:56.792Z,32.62
2022-08-01T11:20:07.829Z,32.78
2022-08-01T11:21:57.852Z,32.98
2022-08-01T11:22:31.844Z,32.61
2022-08-01T11:23:48.744Z,32.69
2022-08-01T11:24:52.540Z,32.92
2022-08-01T11:26:06.116Z,32.75
2022-08-01T11:27:44.103Z,32.69
2022-08-01T11:29:19.915Z,32.50
2022-08-01T11:30:23.663Z,32.48
2022-08-01T11:31:27.426Z,32.64
2022-08-01T11:32:29.279Z,32.66
2022-08-01T11:33:46.191Z,32.72
2022-08-01T11:34:56.883Z,32.75
2022-08-01T11:36:14.688Z,32.90
2022-08-01T11:37:30.475Z,32.68
2022-08-01T11:38:35.039Z,32.87
2022-08-01T11:39:38.794Z,32.96
2022-08-01T11:40:41.072Z,33.23
2022-08-01T11:41:45.062Z,32.95
2022-08-01T11:42:51.485Z,32.85
2022-08-01T11:44:04.007Z,32.93
2022-08-01T11:45:07.489Z,33.13
2022-08-01T11:46:10.422Z,32.98
2022-08-01T11:47:13.795Z,33.11
2022-08-01T11:48:27.889Z,33.04
2022-08-01T11:49:39.373Z,32.81
2022-08-01T11:50:42.292Z,33.25
2022-08-01T11:51:44.492Z,32.99
2022-08-01T11:52:47.226Z,33.06
2022-08-01T11:53:50.681Z,33.20
2022-08-01T11:54:59.084Z,33.40
2022-08-01T11:56:01.167Z,32.81
2022-08-01T11:57:16.008Z,33.06
2022-08-01T11:58:27.730Z,32.99
2022-08-01T12:00:03.459Z,32.99
2022-08-01T12:01:16.072Z,32.76
2022-08-01T12:02:30.366Z,32.91
2022-08-01T12:03:34.533Z,32.97
2022-08-01T12:04:51.136Z,32.83
2022-08-01T12:05:53.311Z,33.22
2022-08-01T12:06:55.140Z,33.41
2022-08-01T12:07:58.382Z,33.47
2022-08-01T12:09:25.495Z,33.38
2022-08-01T12:10:49.760Z,33.04
2022-08-01T12:11:52.068Z,32.85
2022-08-01T12:12:54.903Z,33.10
2022-08-01T12:13:57.512Z,33.02
2022-08-01T12:15:01.350Z,33.41
2022-08-01T12:16:08.933Z,33.19
2022-08-01T12:17:10.963Z,32.96
2022-08-01T12:18:12.819Z,33.27
2022-08-01T12:19:20.706Z,33.06
2022-08-01T12:20:23.968Z,33.34
2022-08-01T12:21:25.819Z,33.01
2022-08-01T12:22:27.871Z,33.03
2022-08-01T12:23:29.696Z,33.54
2022-08-01T12:24:31.485Z,33.33
2022-08-01T12:25:33.409Z,33.27
2022-08-01T12:26:44.304Z,33.32
2022-08-01T12:27:48.319Z,33.27
2022-08-01T12:28:50.335Z,33.32
2022-08-01T12:29:52.329Z,33.06
2022-08-01T12:30:54.551Z,33.33
2022-08-01T12:31:56.503Z,33.51
2022-08-01T12:32:59.520Z,33.47
2022-08-01T12:34:30.583Z,33.09
2022-08-01T12:35:34.304Z,32.86
2022-08-01T12:36:36.119Z,33.14
2022-08-01T12:37:47.770Z,33.42
2022-08-01T12:38:54.468Z,33.02
2022-08-01T12:39:57.711Z,33.24
2022-08-01T12:40:59.757Z,33.30
2022-08-01T12:42:02.307Z,33.42
2022-08-01T12:43:07.013Z,33.22
2022-08-01T12:44:17.761Z,33.59
2022-08-01T12:45:22.442Z,33.11
2022-08-01T12:46:27.145Z,33.29
2022-08-01T12:47:29.059Z,33.15
2022-08-01T12:48:32.227Z,33.25
2022-08-01T12:49:36.351Z,33.22
2022-08-01T12:50:40.736Z,33.48
2022-08-01T12:51:42.702Z,33.71
2022-08-01T12:52:48.498Z,33.20
2022-08-01T12:53:51.453Z,33.18
2022-08-01T12:55:09.631Z,33.11
2022-08-01T12:56:12.444Z,32.77
2022-08-01T12:57:24.772Z,33.25
2022-08-01T12:58:33.246Z,33.42
2022-08-01T12:59:35.291Z,33.15
2022-08-01T13:00:40.143Z,33.14
2022-08-01T13:01:43.086Z,33.25
2022-08-01T13:02:47.517Z,33.22
2022-08-01T13:04:04.950Z,33.40
2022-08-01T13:05:08.278Z,32.90
2022-08-01T13:06:16.218Z,33.17
2022-08-01T13:07:18.898Z,33.19
2022-08-01T13:08:30.728Z,33.25
2022-08-01T13:09:33.303Z,32.92
2022-08-01T13:10:35.200Z,33.06
2022-08-01T13:11:37.263Z,33.17
2022-08-01T13:12:41.127Z,32.97
2022-08-01T13:13:51.288Z,32.88
2022-08-01T13:14:53.100Z,33.23
2022-08-01T13:16:06.437Z,33.28
2022-08-01T13:17:08.675Z,33.35
2022-08-01T13:18:25.106Z,33.00
2022-08-01T13:19:46.147Z,32.93
2022-08-01T13:20:52.346Z,33.27
2022-08-01T13:21:57.136Z,33.10
2022-08-01T13:23:23.433Z,33.03
2022-08-01T13:24:38.808Z,32.84
2022-08-01T13:25:55.413Z,33.19
2022-08-01T13:27:04.432Z,33.18
2022-08-01T13:28:20.639Z,33.22
2022-08-01T13:29:30.252Z,32.99
2022-08-01T13:30:32.024Z,32.98
2022-08-01T13:31:35.537Z,33.21
2022-08-01T13:32:38.487Z,32.90
2022-08-01T13:33:54.105Z,33.09
2022-08-01T13:35:07.071Z,33.20
2022-08-01T13:36:10.093Z,33.28
2022-08-01T13:37:11.927Z,33.36
2022-08-01T13:38:13.680Z,33.10
2022-08-01T13:39:33.916Z,33.45
2022-08-01T13:40:35.878Z,33.00
2022-08-01T13:41:37.950Z,33.16
2022-08-01T13:42:39.800Z,33.30
2022-08-01T13:43:58.199Z,33.14
2022-08-01T13:45:02.918Z,32.77
2022-08-01T13:46:05.524Z,33.13
2022-08-01T13:47:15.774Z,33.12
2022-08-01T13:48:19.806Z,32.79
2022-08-01T13:49:22.822Z,33.09
2022-08-01T13:50:24.903Z,32.85
2022-08-01T13:51:26.856Z,33.21
2022-08-01T13:52:29.220Z,32.95
2022-08-01T13:53:31.456Z,33.25
2022-08-01T13:54:33.936Z,32.99
2022-08-01T13:55:35.793Z,33.04
2022-08-01T13:56:37.619Z,32.70
2022-08-01T13:57:39.782Z,32.79
2022-08-01T13:58:41.533Z,33.26
2022-08-01T13:59:43.354Z,32.90
2022-08-01T14:00:45.434Z,33.00
2022-08-01T14:01:48.169Z,33.23
2022-08-01T14:02:50.102Z,33.17
2022-08-01T14:03:52.630Z,32.90
2022-08-01T14:04:56.679Z,32.93
2022-08-01T14:05:58.655Z,33.17
2022-08-01T14:07:05.487Z,33.21
2022-08-01T14:08:11.587Z,32.72